createdAt,value
2022-10-17T00:02:22.214Z,17.60
2022-10-17T00:05:07.876Z,17.60
2022-10-17T00:07:53.674Z,17.60
2022-10-17T00:10:39.941Z,17.50
2022-10-17T00:13:26.315Z,17.50
2022-10-17T00:16:11.960Z,17.50
2022-10-17T00:18:57.703Z,17.50
2022-10-17T00:21:42.764Z,17.50
2022-10-17T00:24:29.951Z,17.50
2022-10-17T00:27:15.021Z,17.50
2022-10-17T00:30:00.611Z,17.50
2022-10-17T00:32:45.937Z,17.50
2022-10-17T00:35:31.728Z,17.40
2022-10-17T00:38:16.734Z,17.50
2022-10-17T00:41:02.750Z,17.50
2022-10-17T00:44:05.196Z,17.40
2022-10-17T00:46:50.215Z,17.40
2022-10-17T00:49:38.321Z,17.40
2022-10-17T00:52:28.473Z,17.40
2022-10-17T00:55:21.163Z,17.40
2022-10-17T00:58:06.522Z,17.40
2022-10-17T01:00:51.745Z,17.40
2022-10-17T01:03:37.259Z,17.30
2022-10-17T01:06:22.618Z,17.20
2022-10-17T01:09:08.248Z,17.20
2022-10-17T01:12:16.268Z,17.20
2022-10-17T01:15:10.196Z,17.20
2022-10-17T01:18:22.771Z,17.10
2022-10-17T01:21:27.912Z,17.00
2022-10-17T01:24:41.215Z,17.10
2022-10-17T01:27:46.496Z,17.10
2022-10-17T01:31:02.958Z,17.10
2022-10-17T01:34:04.053Z,17.10
2022-10-17T01:36:56.249Z,17.10
2022-10-17T01:39:43.932Z,17.10
2022-10-17T01:42:41.361Z,17.10
2022-10-17T01:45:30.583Z,17.10
2022-10-17T01:48:20.423Z,17.10
2022-10-17T01:51:22.713Z,17.00
2022-10-17T01:54:42.355Z,17.00
2022-10-17T01:57:37.624Z,17.00
2022-10-17T02:00:26.094Z,17.00
2022-10-17T02:03:17.168Z,17.00
2022-10-17T02:06:02.633Z,16.90
2022-10-17T02:08:50.164Z,16.90
2022-10-17T02:11:35.229Z,16.90
2022-10-17T02:14:33.815Z,16.90
2022-10-17T02:17:41.154Z,16.90
2022-10-17T02:20:40.503Z,16.90
2022-10-17T02:23:54.047Z,16.90
2022-10-17T02:26:54.778Z,16.90
2022-10-17T02:29:48.598Z,16.90
2022-10-17T02:32:46.652Z,16.90
2022-10-17T02:35:41.132Z,16.80
2022-10-17T02:38:27.830Z,16.80
2022-10-17T02:41:16.559Z,16.80
2022-10-17T02:44:03.669Z,16.80
2022-10-17T02:46:55.880Z,16.80
2022-10-17T02:49:47.134Z,16.70
2022-10-17T02:52:45.192Z,16.70
2022-10-17T02:55:42.495Z,16.70
2022-10-17T02:58:32.174Z,16.70
2022-10-17T03:01:18.979Z,16.70
2022-10-17T03:04:13.937Z,16.70
2022-10-17T03:06:59.594Z,16.60
2022-10-17T03:09:45.075Z,16.60
2022-10-17T03:12:30.464Z,16.60
2022-10-17T03:15:16.270Z,16.60
2022-10-17T03:18:01.728Z,16.60
2022-10-17T03:20:47.085Z,16.60
2022-10-17T03:23:32.538Z,16.60
2022-10-17T03:26:17.931Z,16.60
2022-10-17T03:29:03.798Z,16.60
2022-10-17T03:31:49.417Z,16.60
2022-10-17T03:34:34.863Z,16.60
2022-10-17T03:37:20.388Z,16.60
2022-10-17T03:40:06.229Z,16.50
2022-10-17T03:42:51.558Z,16.50
2022-10-17T03:45:36.968Z,16.50
2022-10-17T03:48:22.255Z,16.50
2022-10-17T03:51:09.591Z,16.40
2022-10-17T03:53:54.996Z,16.40
2022-10-17T03:56:40.412Z,16.40
2022-10-17T03:59:25.907Z,16.50
2022-10-17T04:02:11.413Z,16.50
2022-10-17T04:04:56.533Z,16.40
2022-10-17T04:07:42.095Z,16.40
2022-10-17T04:10:27.528Z,16.40
2022-10-17T04:13:12.903Z,16.40
2022-10-17T04:16:10.497Z,16.40
2022-10-17T04:18:57.742Z,16.30
2022-10-17T04:21:43.095Z,16.30
2022-10-17T04:24:28.822Z,16.30
2022-10-17T04:27:14.273Z,16.40
2022-10-17T04:29:59.747Z,16.30
2022-10-17T04:32:46.151Z,16.30
2022-10-17T04:35:31.890Z,16.30
2022-10-17T04:38:17.067Z,16.30
2022-10-17T04:41:05.373Z,16.20
2022-10-17T04:43:51.402Z,16.20
2022-10-17T04:46:37.100Z,16.20
2022-10-17T04:49:22.630Z,16.20
2022-10-17T04:52:07.993Z,16.20
2022-10-17T04:54:53.618Z,16.20
2022-10-17T04:57:38.949Z,16.30
2022-10-17T05:00:24.384Z,16.40
2022-10-17T05:03:09.944Z,16.40
2022-10-17T05:05:55.306Z,16.40
2022-10-17T05:08:40.982Z,16.30
2022-10-17T05:11:28.630Z,16.20
2022-10-17T05:14:13.980Z,16.20
2022-10-17T05:16:59.423Z,16.20
2022-10-17T05:19:44.850Z,16.20
2022-10-17T05:22:30.641Z,16.20
2022-10-17T05:25:16.238Z,16.10
2022-10-17T05:28:01.604Z,16.10
2022-10-17T05:30:46.900Z,16.10
2022-10-17T05:33:32.499Z,16.10
2022-10-17T05:36:17.858Z,16.00
2022-10-17T05:39:03.392Z,16.00
2022-10-17T05:41:48.571Z,16.00
2022-10-17T05:44:33.976Z,15.90
2022-10-17T05:47:19.226Z,15.90
2022-10-17T05:50:05.067Z,15.90
2022-10-17T05:52:53.958Z,15.90
2022-10-17T05:55:39.010Z,15.90
2022-10-17T05:58:45.625Z,15.90
2022-10-17T06:01:30.197Z,15.90
2022-10-17T06:04:15.543Z,15.90
2022-10-17T06:07:01.067Z,15.90
2022-10-17T06:12:36.880Z,15.90
2022-10-17T06:15:22.299Z,15.90
2022-10-17T06:18:07.559Z,15.90
2022-10-17T06:20:53.062Z,16.00
2022-10-17T06:23:38.836Z,16.00
2022-10-17T06:26:23.959Z,16.00
2022-10-17T06:29:09.667Z,16.00
2022-10-17T06:31:55.189Z,16.00
2022-10-17T06:34:40.453Z,16.00
2022-10-17T06:37:26.308Z,16.10
2022-10-17T06:40:12.623Z,16.10
2022-10-17T06:42:57.955Z,16.10
2022-10-17T06:45:45.551Z,16.10
2022-10-17T06:48:30.649Z,16.10
2022-10-17T06:51:16.056Z,16.20
2022-10-17T06:54:01.356Z,16.20
2022-10-17T06:56:46.731Z,16.30
2022-10-17T06:59:32.041Z,16.30
2022-10-17T07:02:17.336Z,16.40
2022-10-17T07:05:03.076Z,16.40
2022-10-17T07:07:50.957Z,16.40
2022-10-17T07:10:38.495Z,16.40
2022-10-17T07:13:24.378Z,16.50
2022-10-17T07:16:10.311Z,16.50
2022-10-17T07:18:56.071Z,16.50
2022-10-17T07:21:41.264Z,16.60
2022-10-17T07:24:26.562Z,16.70
2022-10-17T07:27:13.537Z,16.70
2022-10-17T07:29:58.930Z,16.80
2022-10-17T07:32:44.451Z,16.90
2022-10-17T07:35:29.741Z,17.00
2022-10-17T07:38:15.023Z,17.10
2022-10-17T07:41:02.639Z,17.20
2022-10-17T07:43:47.915Z,17.30
2022-10-17T07:46:33.303Z,17.40
2022-10-17T07:49:18.743Z,17.50
2022-10-17T07:52:04.103Z,17.60
2022-10-17T07:54:49.527Z,17.70
2022-10-17T07:57:34.862Z,17.70
2022-10-17T08:00:20.437Z,17.80
2022-10-17T08:03:06.278Z,17.80
2022-10-17T08:05:51.604Z,17.90
2022-10-17T08:08:37.088Z,18.00
2022-10-17T08:11:23.183Z,18.20
2022-10-17T08:14:08.338Z,18.30
2022-10-17T08:16:55.103Z,18.30
2022-10-17T08:19:40.798Z,18.30
2022-10-17T08:22:26.607Z,18.30
2022-10-17T08:25:12.183Z,18.40
2022-10-17T08:27:58.265Z,18.40
2022-10-17T08:30:43.408Z,18.40
2022-10-17T08:33:28.741Z,18.60
2022-10-17T08:36:20.347Z,18.60
2022-10-17T08:39:06.351Z,18.60
2022-10-17T08:42:13.781Z,18.80
2022-10-17T08:45:14.679Z,18.80
2022-10-17T08:48:02.746Z,18.90
2022-10-17T08:51:15.599Z,19.00
2022-10-17T08:54:03.645Z,19.00
2022-10-17T08:56:55.183Z,19.10
2022-10-17T08:59:40.269Z,19.30
2022-10-17T09:02:55.044Z,19.20
2022-10-17T09:06:35.639Z,19.50
2022-10-17T09:09:40.179Z,19.50
2022-10-17T09:12:43.999Z,19.80
2022-10-17T09:15:41.302Z,19.90
2022-10-17T09:18:37.297Z,20.00
2022-10-17T09:21:29.933Z,19.90
2022-10-17T09:24:40.383Z,20.00
2022-10-17T09:27:52.261Z,20.30
2022-10-17T09:30:45.784Z,20.40
2022-10-17T09:33:53.484Z,20.50
2022-10-17T09:36:40.692Z,20.40
2022-10-17T09:39:29.129Z,20.60
2022-10-17T09:42:20.687Z,20.60
2022-10-17T09:45:19.392Z,20.80
2022-10-17T09:48:37.424Z,20.90
2022-10-17T09:51:26.017Z,21.00
2022-10-17T09:54:25.121Z,21.00
2022-10-17T09:57:13.054Z,21.10
2022-10-17T10:00:01.646Z,21.30
2022-10-17T10:02:46.877Z,21.30
2022-10-17T10:05:32.323Z,21.30
2022-10-17T10:08:19.473Z,21.40
2022-10-17T10:11:07.905Z,21.30
2022-10-17T10:13:56.216Z,21.60
2022-10-17T10:16:43.773Z,21.70
2022-10-17T10:19:37.989Z,21.80
2022-10-17T10:22:23.811Z,22.00
2022-10-17T10:25:16.693Z,22.00
2022-10-17T10:28:02.380Z,22.10
2022-10-17T10:30:51.134Z,22.30
2022-10-17T10:33:42.012Z,22.20
2022-10-17T10:36:53.637Z,22.20
2022-10-17T10:39:49.850Z,22.40
2022-10-17T10:42:40.271Z,22.50
2022-10-17T10:45:46.832Z,22.70
2022-10-17T10:48:37.342Z,22.80
2022-10-17T10:51:40.132Z,22.80
2022-10-17T10:54:32.504Z,22.80
2022-10-17T10:57:21.404Z,23.00
2022-10-17T11:00:15.429Z,23.00
2022-10-17T11:03:16.160Z,23.20
2022-10-17T11:06:24.442Z,23.20
2022-10-17T11:09:32.982Z,23.30
2022-10-17T11:12:27.409Z,23.30
2022-10-17T11:15:31.317Z,23.50
2022-10-17T11:18:43.201Z,23.50
2022-10-17T11:21:53.430Z,23.60
2022-10-17T11:25:00.785Z,23.60
2022-10-17T11:27:46.231Z,23.60
2022-10-17T11:30:41.390Z,23.60
2022-10-17T11:33:44.737Z,23.70
2022-10-17T11:36:34.356Z,23.90
2022-10-17T11:39:41.161Z,24.10
2022-10-17T11:42:31.830Z,24.10
2022-10-17T11:45:21.893Z,23.90
2022-10-17T11:48:26.013Z,24.00
2022-10-17T11:54:45.600Z,24.20
2022-10-17T11:58:07.593Z,24.40
2022-10-17T12:01:26.796Z,24.50
2022-10-17T12:04:42.748Z,24.60
2022-10-17T12:08:06.743Z,24.60
2022-10-17T12:11:07.036Z,24.40
2022-10-17T12:13:54.689Z,24.60
2022-10-17T12:16:44.882Z,24.50
2022-10-17T12:19:37.666Z,24.60
2022-10-17T12:22:26.161Z,24.50
2022-10-17T12:25:21.259Z,24.50
2022-10-17T12:28:06.443Z,24.50
2022-10-17T12:30:58.029Z,24.40
2022-10-17T12:33:46.377Z,24.50
2022-10-17T12:36:31.646Z,24.60
2022-10-17T12:39:17.583Z,24.70
2022-10-17T12:42:02.995Z,24.80
2022-10-17T12:44:51.272Z,24.80
2022-10-17T12:47:39.387Z,24.80
2022-10-17T12:51:30.759Z,24.90
2022-10-17T12:54:12.938Z,24.90
2022-10-17T12:56:58.312Z,25.00
2022-10-17T12:59:45.144Z,25.00
2022-10-17T13:02:31.450Z,25.00
2022-10-17T13:05:25.769Z,25.10
2022-10-17T13:08:19.444Z,25.10
2022-10-17T13:11:06.573Z,25.10
2022-10-17T13:13:54.619Z,25.00
2022-10-17T13:16:51.223Z,25.00
2022-10-17T13:19:42.888Z,25.00
2022-10-17T13:22:31.291Z,25.00
2022-10-17T13:25:19.212Z,25.00
2022-10-17T13:28:08.049Z,25.30
2022-10-17T13:30:54.728Z,25.30
2022-10-17T13:33:42.233Z,25.30
2022-10-17T13:36:29.218Z,25.20
2022-10-17T13:39:23.228Z,25.20
2022-10-17T13:42:25.498Z,25.40
2022-10-17T13:45:32.732Z,25.50
2022-10-17T13:48:26.580Z,25.60
2022-10-17T13:51:12.943Z,25.80
2022-10-17T13:53:58.277Z,25.80
2022-10-17T13:56:43.729Z,25.90
2022-10-17T13:59:40.234Z,25.90
2022-10-17T14:02:28.288Z,25.90
2022-10-17T14:05:18.570Z,25.80
2022-10-17T14:08:11.858Z,25.90
2022-10-17T14:10:58.983Z,25.90
2022-10-17T14:13:50.070Z,25.90
2022-10-17T14:16:41.295Z,26.10
2022-10-17T14:19:29.672Z,25.90
2022-10-17T14:22:23.044Z,25.90
2022-10-17T14:25:30.726Z,25.90
2022-10-17T14:28:18.286Z,25.90
2022-10-17T14:31:31.361Z,25.90
2022-10-17T14:34:24.117Z,25.90
2022-10-17T14:37:31.325Z,26.00
2022-10-17T14:40:25.646Z,25.90
2022-10-17T14:43:21.445Z,25.90
2022-10-17T14:46:07.114Z,25.90
2022-10-17T14:49:03.198Z,25.90
2022-10-17T14:52:13.718Z,25.80
2022-10-17T14:55:26.375Z,25.80
2022-10-17T14:58:22.595Z,25.70
2022-10-17T15:01:07.959Z,25.70
2022-10-17T15:03:53.297Z,25.60
2022-10-17T15:06:40.522Z,25.50
2022-10-17T15:09:28.556Z,25.60
2022-10-17T15:12:16.623Z,25.70
2022-10-17T15:15:02.072Z,25.50
2022-10-17T15:17:47.505Z,25.70
2022-10-17T15:20:33.875Z,25.60
2022-10-17T15:23:19.254Z,25.60
2022-10-17T15:26:15.870Z,25.80
2022-10-17T15:29:01.958Z,25.80
2022-10-17T15:31:47.184Z,25.90
2022-10-17T15:34:34.065Z,25.70
2022-10-17T15:37:25.160Z,25.70
2022-10-17T15:40:23.301Z,25.80
2022-10-17T15:43:09.752Z,25.70
2022-10-17T15:45:55.150Z,25.70
2022-10-17T15:48:41.230Z,25.70
2022-10-17T15:51:26.596Z,25.50
2022-10-17T15:56:58.530Z,25.30
2022-10-17T15:59:46.797Z,25.20
2022-10-17T16:02:33.189Z,25.10
2022-10-17T16:05:25.522Z,25.00
2022-10-17T16:08:10.688Z,24.70
2022-10-17T16:10:56.792Z,24.60
2022-10-17T16:13:43.301Z,24.50
2022-10-17T16:16:28.992Z,24.50
2022-10-17T16:19:14.166Z,24.40
2022-10-17T16:22:04.341Z,24.30
2022-10-17T16:24:49.999Z,24.20
2022-10-17T16:27:37.246Z,24.00
2022-10-17T16:30:24.544Z,23.90
2022-10-17T16:33:12.777Z,23.80
2022-10-17T16:35:58.213Z,23.80
2022-10-17T16:38:44.108Z,23.60
2022-10-17T16:41:32.814Z,23.50
2022-10-17T16:44:18.133Z,23.40
2022-10-17T16:47:03.632Z,23.30
2022-10-17T16:49:49.029Z,23.20
2022-10-17T16:52:34.498Z,23.10
2022-10-17T16:55:20.428Z,23.10
2022-10-17T16:58:05.922Z,23.10
2022-10-17T17:00:51.336Z,23.00
2022-10-17T17:03:42.132Z,22.90
2022-10-17T17:06:29.141Z,22.80
2022-10-17T17:09:14.580Z,22.80
2022-10-17T17:11:59.842Z,22.70
2022-10-17T17:14:45.197Z,22.60
2022-10-17T17:17:48.343Z,22.60
2022-10-17T17:20:35.909Z,22.60
2022-10-17T17:23:21.317Z,22.40
2022-10-17T17:26:19.248Z,22.50
2022-10-17T17:29:05.247Z,22.40
2022-10-17T17:31:51.242Z,22.30
2022-10-17T17:34:37.851Z,22.30
2022-10-17T17:37:22.971Z,22.20
2022-10-17T17:40:08.873Z,22.20
2022-10-17T17:42:54.255Z,22.20
2022-10-17T17:45:39.755Z,22.10
2022-10-17T17:48:25.237Z,22.00
2022-10-17T17:51:14.068Z,22.00
2022-10-17T17:53:59.276Z,21.90
2022-10-17T17:56:44.623Z,21.90
2022-10-17T17:59:31.161Z,21.90
2022-10-17T18:02:16.604Z,21.80
2022-10-17T18:05:02.246Z,21.80
2022-10-17T18:07:47.814Z,21.70
2022-10-17T18:10:32.765Z,21.60
2022-10-17T18:13:18.202Z,21.60
2022-10-17T18:16:12.606Z,21.60
2022-10-17T18:19:02.604Z,21.60
2022-10-17T18:21:50.763Z,21.50
2022-10-17T18:24:36.157Z,21.40
2022-10-17T18:27:21.571Z,21.40
2022-10-17T18:30:08.489Z,21.40
2022-10-17T18:32:53.825Z,21.30
2022-10-17T18:35:39.294Z,21.40
2022-10-17T18:38:24.634Z,21.30
2022-10-17T18:41:12.768Z,21.30
2022-10-17T18:43:58.298Z,21.30
2022-10-17T18:49:31.065Z,21.20
2022-10-17T18:52:16.555Z,21.20
2022-10-17T18:55:01.902Z,21.30
2022-10-17T18:57:50.783Z,21.20
2022-10-17T19:00:36.514Z,21.10
2022-10-17T19:03:21.846Z,21.00
2022-10-17T19:06:08.730Z,21.00
2022-10-17T19:08:54.027Z,21.00
2022-10-17T19:11:40.158Z,20.90
2022-10-17T19:14:26.374Z,20.90
2022-10-17T19:17:11.393Z,20.90
2022-10-17T19:19:56.972Z,20.90
2022-10-17T19:22:42.426Z,20.80
2022-10-17T19:25:30.307Z,20.70
2022-10-17T19:28:15.675Z,20.70
2022-10-17T19:31:01.324Z,20.70
2022-10-17T19:33:51.022Z,20.70
2022-10-17T19:36:36.640Z,20.60
2022-10-17T19:39:23.815Z,20.50
2022-10-17T19:42:09.314Z,20.50
2022-10-17T19:44:54.788Z,20.50
2022-10-17T19:47:40.293Z,20.40
2022-10-17T19:50:25.703Z,20.40
2022-10-17T19:53:10.997Z,20.40
2022-10-17T19:55:57.328Z,20.40
2022-10-17T19:58:46.286Z,20.40
2022-10-17T20:01:34.259Z,20.30
2022-10-17T20:04:19.280Z,20.10
2022-10-17T20:07:04.691Z,20.10
2022-10-17T20:09:49.991Z,20.10
2022-10-17T20:12:35.451Z,20.10
2022-10-17T20:15:20.812Z,20.10
2022-10-17T20:18:06.988Z,20.10
2022-10-17T20:20:52.071Z,20.00
2022-10-17T20:23:38.588Z,20.00
2022-10-17T20:26:37.124Z,20.00
2022-10-17T20:29:24.005Z,20.00
2022-10-17T20:32:09.393Z,20.00
2022-10-17T20:34:54.853Z,20.00
2022-10-17T20:37:42.587Z,19.90
2022-10-17T20:40:35.933Z,20.00
2022-10-17T20:43:21.152Z,19.80
2022-10-17T20:46:22.952Z,19.80
2022-10-17T20:49:15.464Z,19.70
2022-10-17T20:52:01.578Z,19.70
2022-10-17T20:54:46.983Z,19.70
2022-10-17T20:57:32.515Z,19.60
2022-10-17T21:00:18.260Z,19.60
2022-10-17T21:03:03.642Z,19.60
2022-10-17T21:05:48.944Z,19.60
2022-10-17T21:08:34.382Z,19.60
2022-10-17T21:11:25.451Z,19.60
2022-10-17T21:14:11.924Z,19.50
2022-10-17T21:17:01.053Z,19.50
2022-10-17T21:19:49.547Z,19.40
2022-10-17T21:22:34.996Z,19.40
2022-10-17T21:25:20.138Z,19.40
2022-10-17T21:28:05.522Z,19.40
2022-10-17T21:30:50.863Z,19.40
2022-10-17T21:33:43.147Z,19.40
2022-10-17T21:36:28.661Z,19.30
2022-10-17T21:39:15.237Z,19.40
2022-10-17T21:42:00.822Z,19.30
2022-10-17T21:44:46.116Z,19.30
2022-10-17T21:47:31.444Z,19.30
2022-10-17T21:50:16.911Z,19.20
2022-10-17T21:53:02.396Z,19.10
2022-10-17T21:55:47.694Z,19.10
2022-10-17T21:58:33.735Z,19.20
2022-10-17T22:01:22.115Z,19.10
2022-10-17T22:04:20.222Z,19.00
2022-10-17T22:07:13.040Z,19.00
2022-10-17T22:10:12.906Z,18.90
2022-10-17T22:12:58.473Z,18.80
2022-10-17T22:15:46.616Z,18.80
2022-10-17T22:18:32.706Z,18.70
2022-10-17T22:21:21.421Z,18.80
2022-10-17T22:24:10.134Z,18.70
2022-10-17T22:26:55.488Z,18.70
2022-10-17T22:29:40.794Z,18.60
2022-10-17T22:32:26.142Z,18.60
2022-10-17T22:35:11.650Z,18.60
2022-10-17T22:37:56.772Z,18.60
2022-10-17T22:40:46.112Z,18.50
2022-10-17T22:43:31.592Z,18.50
2022-10-17T22:46:18.587Z,18.40
2022-10-17T22:49:04.140Z,18.40
2022-10-17T22:51:49.553Z,18.30
2022-10-17T22:54:34.913Z,18.20
2022-10-17T22:57:20.318Z,18.20
2022-10-17T23:00:07.397Z,18.10
2022-10-17T23:02:55.895Z,18.10
2022-10-17T23:05:40.905Z,18.10
2022-10-17T23:08:27.367Z,18.00
2022-10-17T23:11:12.775Z,18.00
2022-10-17T23:13:57.976Z,18.00
2022-10-17T23:16:43.460Z,17.90
2022-10-17T23:19:29.110Z,17.90
2022-10-17T23:22:14.015Z,17.80
2022-10-17T23:24:59.483Z,17.90
2022-10-17T23:27:44.916Z,17.90
2022-10-17T23:30:32.559Z,17.90
2022-10-17T23:33:17.768Z,17.90
2022-10-17T23:36:07.151Z,17.90
2022-10-17T23:38:55.028Z,17.90
2022-10-17T23:41:43.103Z,17.90
2022-10-17T23:44:28.533Z,17.90
2022-10-17T23:47:14.112Z,17.90
2022-10-17T23:49:59.437Z,17.90
2022-10-17T23:52:44.758Z,17.80
2022-10-17T23:55:30.186Z,17.70
2022-10-17T23:58:15.710Z,17.70
